sensor_id;sensor_type;location;lat;lon;timestamp;P1;durP1;ratioP1;P2;durP2;ratioP2
15402;SDS011;7799;53.478;10.170;2023-01-15T00:01:20;3.40;;;3.30;;
15402;SDS011;7799;53.478;10.170;2023-01-15T00:03:49;3.53;;;3.40;;
15402;SDS011;7799;53.478;10.170;2023-01-15T00:06:16;4.10;;;3.90;;
15402;SDS011;7799;53.478;10.170;2023-01-15T00:08:43;3.87;;;3.77;;
15402;SDS011;7799;53.478;10.170;2023-01-15T00:11:10;3.30;;;3.20;;
15402;SDS011;7799;53.478;10.170;2023-01-15T00:13:37;3.50;;;3.40;;
15402;SDS011;7799;53.478;10.170;2023-01-15T00:16:04;3.53;;;3.43;;
15402;SDS011;7799;53.478;10.170;2023-01-15T00:18:33;3.97;;;3.77;;
15402;SDS011;7799;53.478;10.170;2023-01-15T00:21:00;4.27;;;4.07;;
15402;SDS011;7799;53.478;10.170;2023-01-15T00:23:27;3.90;;;3.53;;
15402;SDS011;7799;53.478;10.170;2023-01-15T00:26:12;3.70;;;3.50;;
15402;SDS011;7799;53.478;10.170;2023-01-15T00:28:56;3.60;;;3.50;;
15402;SDS011;7799;53.478;10.170;2023-01-15T00:31:23;3.77;;;3.60;;
15402;SDS011;7799;53.478;10.170;2023-01-15T00:33:51;3.53;;;3.43;;
15402;SDS011;7799;53.478;10.170;2023-01-15T00:36:18;4.00;;;3.80;;
15402;SDS011;7799;53.478;10.170;2023-01-15T00:38:44;3.87;;;3.77;;
15402;SDS011;7799;53.478;10.170;2023-01-15T00:41:11;3.67;;;3.47;;
15402;SDS011;7799;53.478;10.170;2023-01-15T00:43:38;3.60;;;3.50;;
15402;SDS011;7799;53.478;10.170;2023-01-15T00:46:05;3.80;;;3.60;;
15402;SDS011;7799;53.478;10.170;2023-01-15T00:48:32;3.80;;;3.70;;
15402;SDS011;7799;53.478;10.170;2023-01-15T00:51:01;3.83;;;3.73;;
15402;SDS011;7799;53.478;10.170;2023-01-15T00:53:28;3.80;;;3.70;;
15402;SDS011;7799;53.478;10.170;2023-01-15T00:55:55;3.80;;;3.70;;
15402;SDS011;7799;53.478;10.170;2023-01-15T00:58:21;3.53;;;3.43;;
15402;SDS011;7799;53.478;10.170;2023-01-15T01:00:51;3.67;;;3.57;;
15402;SDS011;7799;53.478;10.170;2023-01-15T01:03:19;3.83;;;3.63;;
15402;SDS011;7799;53.478;10.170;2023-01-15T01:05:46;3.50;;;3.40;;
15402;SDS011;7799;53.478;10.170;2023-01-15T01:08:14;3.87;;;3.70;;
15402;SDS011;7799;53.478;10.170;2023-01-15T01:10:40;3.60;;;3.50;;
15402;SDS011;7799;53.478;10.170;2023-01-15T01:13:07;3.60;;;3.50;;
15402;SDS011;7799;53.478;10.170;2023-01-15T01:15:34;3.70;;;3.60;;
15402;SDS011;7799;53.478;10.170;2023-01-15T01:18:01;3.40;;;3.30;;
15402;SDS011;7799;53.478;10.170;2023-01-15T01:20:28;3.57;;;3.47;;
15402;SDS011;7799;53.478;10.170;2023-01-15T01:22:54;3.70;;;3.50;;
15402;SDS011;7799;53.478;10.170;2023-01-15T01:25:23;3.70;;;3.50;;
15402;SDS011;7799;53.478;10.170;2023-01-15T01:27:49;3.70;;;3.50;;
15402;SDS011;7799;53.478;10.170;2023-01-15T01:30:16;3.50;;;3.40;;
15402;SDS011;7799;53.478;10.170;2023-01-15T01:32:43;3.50;;;3.40;;
15402;SDS011;7799;53.478;10.170;2023-01-15T01:35:11;3.93;;;3.73;;
15402;SDS011;7799;53.478;10.170;2023-01-15T01:37:37;3.37;;;3.27;;
15402;SDS011;7799;53.478;10.170;2023-01-15T01:40:04;3.40;;;3.30;;
15402;SDS011;7799;53.478;10.170;2023-01-15T01:42:33;3.70;;;3.60;;
15402;SDS011;7799;53.478;10.170;2023-01-15T01:45:01;3.50;;;3.40;;
15402;SDS011;7799;53.478;10.170;2023-01-15T01:47:31;3.43;;;3.33;;
15402;SDS011;7799;53.478;10.170;2023-01-15T01:49:58;3.70;;;3.60;;
15402;SDS011;7799;53.478;10.170;2023-01-15T01:52:29;4.00;;;3.90;;
15402;SDS011;7799;53.478;10.170;2023-01-15T01:54:56;3.80;;;3.60;;
15402;SDS011;7799;53.478;10.170;2023-01-15T01:57:23;4.00;;;3.80;;
15402;SDS011;7799;53.478;10.170;2023-01-15T01:59:51;3.73;;;3.63;;
15402;SDS011;7799;53.478;10.170;2023-01-15T02:02:19;3.80;;;3.70;;
15402;SDS011;7799;53.478;10.170;2023-01-15T02:04:46;3.67;;;3.57;;
15402;SDS011;7799;53.478;10.170;2023-01-15T02:07:13;4.30;;;4.00;;
15402;SDS011;7799;53.478;10.170;2023-01-15T02:09:39;4.20;;;4.00;;
15402;SDS011;7799;53.478;10.170;2023-01-15T02:12:08;3.80;;;3.70;;
15402;SDS011;7799;53.478;10.170;2023-01-15T02:14:38;3.80;;;3.70;;
15402;SDS011;7799;53.478;10.170;2023-01-15T02:17:12;3.67;;;3.57;;
15402;SDS011;7799;53.478;10.170;2023-01-15T02:19:44;3.80;;;3.70;;
15402;SDS011;7799;53.478;10.170;2023-01-15T02:22:18;4.00;;;3.80;;
15402;SDS011;7799;53.478;10.170;2023-01-15T02:24:54;3.70;;;3.60;;
15402;SDS011;7799;53.478;10.170;2023-01-15T02:27:27;4.13;;;4.00;;
15402;SDS011;7799;53.478;10.170;2023-01-15T02:29:55;4.03;;;3.83;;
15402;SDS011;7799;53.478;10.170;2023-01-15T02:32:28;3.60;;;3.50;;
15402;SDS011;7799;53.478;10.170;2023-01-15T02:35:00;4.10;;;3.90;;
15402;SDS011;7799;53.478;10.170;2023-01-15T02:37:31;3.77;;;3.60;;
15402;SDS011;7799;53.478;10.170;2023-01-15T02:40:00;4.00;;;3.70;;
15402;SDS011;7799;53.478;10.170;2023-01-15T02:42:32;3.50;;;3.40;;
15402;SDS011;7799;53.478;10.170;2023-01-15T02:45:00;3.53;;;3.43;;
15402;SDS011;7799;53.478;10.170;2023-01-15T02:47:29;3.80;;;3.60;;
15402;SDS011;7799;53.478;10.170;2023-01-15T02:50:00;3.50;;;3.40;;
15402;SDS011;7799;53.478;10.170;2023-01-15T02:52:36;3.50;;;3.30;;
15402;SDS011;7799;53.478;10.170;2023-01-15T02:55:07;3.60;;;3.50;;
15402;SDS011;7799;53.478;10.170;2023-01-15T02:57:43;3.50;;;3.40;;
15402;SDS011;7799;53.478;10.170;2023-01-15T03:00:14;3.50;;;3.40;;
15402;SDS011;7799;53.478;10.170;2023-01-15T03:02:43;3.60;;;3.50;;
15402;SDS011;7799;53.478;10.170;2023-01-15T03:05:10;4.37;;;4.17;;
15402;SDS011;7799;53.478;10.170;2023-01-15T03:07:40;3.80;;;3.60;;
15402;SDS011;7799;53.478;10.170;2023-01-15T03:10:10;3.80;;;3.70;;
15402;SDS011;7799;53.478;10.170;2023-01-15T03:12:39;3.80;;;3.70;;
15402;SDS011;7799;53.478;10.170;2023-01-15T03:15:42;4.00;;;3.70;;
15402;SDS011;7799;53.478;10.170;2023-01-15T03:18:30;3.80;;;3.70;;
15402;SDS011;7799;53.478;10.170;2023-01-15T03:21:01;3.93;;;3.77;;
15402;SDS011;7799;53.478;10.170;2023-01-15T03:23:29;3.70;;;3.60;;
15402;SDS011;7799;53.478;10.170;2023-01-15T03:25:56;3.60;;;3.40;;
15402;SDS011;7799;53.478;10.170;2023-01-15T03:28:25;3.50;;;3.40;;
15402;SDS011;7799;53.478;10.170;2023-01-15T03:30:53;3.40;;;3.30;;
15402;SDS011;7799;53.478;10.170;2023-01-15T03:33:20;3.43;;;3.33;;
15402;SDS011;7799;53.478;10.170;2023-01-15T03:35:50;3.60;;;3.40;;
15402;SDS011;7799;53.478;10.170;2023-01-15T03:38:27;3.70;;;3.40;;
15402;SDS011;7799;53.478;10.170;2023-01-15T03:40:59;3.60;;;3.40;;
15402;SDS011;7799;53.478;10.170;2023-01-15T03:43:36;3.90;;;3.60;;
15402;SDS011;7799;53.478;10.170;2023-01-15T03:46:13;3.47;;;3.33;;
15402;SDS011;7799;53.478;10.170;2023-01-15T03:48:53;3.43;;;3.30;;
15402;SDS011;7799;53.478;10.170;2023-01-15T03:51:22;3.43;;;3.33;;
15402;SDS011;7799;53.478;10.170;2023-01-15T03:53:52;3.47;;;3.27;;
15402;SDS011;7799;53.478;10.170;2023-01-15T03:56:23;3.30;;;3.10;;
15402;SDS011;7799;53.478;10.170;2023-01-15T03:58:58;3.63;;;3.43;;
15402;SDS011;7799;53.478;10.170;2023-01-15T04:01:40;3.40;;;3.20;;
15402;SDS011;7799;53.478;10.170;2023-01-15T04:04:09;3.20;;;3.00;;
15402;SDS011;7799;53.478;10.170;2023-01-15T04:06:37;3.10;;;3.00;;
15402;SDS011;7799;53.478;10.170;2023-01-15T04:09:05;2.90;;;2.80;;
15402;SDS011;7799;53.478;10.170;2023-01-15T04:11:34;3.17;;;2.97;;
15402;SDS011;7799;53.478;10.170;2023-01-15T04:14:05;3.10;;;2.90;;
15402;SDS011;7799;53.478;10.170;2023-01-15T04:16:41;3.10;;;3.00;;
15402;SDS011;7799;53.478;10.170;2023-01-15T04:19:09;3.30;;;2.90;;
15402;SDS011;7799;53.478;10.170;2023-01-15T04:21:40;3.03;;;2.93;;
15402;SDS011;7799;53.478;10.170;2023-01-15T04:24:07;3.07;;;2.97;;
15402;SDS011;7799;53.478;10.170;2023-01-15T04:26:33;3.10;;;2.90;;
15402;SDS011;7799;53.478;10.170;2023-01-15T04:29:00;3.03;;;2.90;;
15402;SDS011;7799;53.478;10.170;2023-01-15T04:31:28;3.00;;;2.90;;
15402;SDS011;7799;53.478;10.170;2023-01-15T04:33:56;2.97;;;2.87;;
15402;SDS011;7799;53.478;10.170;2023-01-15T04:36:23;2.90;;;2.80;;
15402;SDS011;7799;53.478;10.170;2023-01-15T04:38:49;3.40;;;3.20;;
15402;SDS011;7799;53.478;10.170;2023-01-15T04:41:16;2.90;;;2.80;;
15402;SDS011;7799;53.478;10.170;2023-01-15T04:44:00;2.83;;;2.60;;
15402;SDS011;7799;53.478;10.170;2023-01-15T04:46:35;3.37;;;2.87;;
15402;SDS011;7799;53.478;10.170;2023-01-15T04:49:03;2.90;;;2.80;;
15402;SDS011;7799;53.478;10.170;2023-01-15T04:51:30;3.10;;;2.90;;
15402;SDS011;7799;53.478;10.170;2023-01-15T04:53:56;2.80;;;2.70;;
15402;SDS011;7799;53.478;10.170;2023-01-15T04:56:25;4.23;;;3.17;;
15402;SDS011;7799;53.478;10.170;2023-01-15T04:58:52;3.00;;;2.70;;
15402;SDS011;7799;53.478;10.170;2023-01-15T05:01:19;3.20;;;2.70;;
15402;SDS011;7799;53.478;10.170;2023-01-15T05:03:47;2.70;;;2.50;;
15402;SDS011;7799;53.478;10.170;2023-01-15T05:06:13;2.67;;;2.57;;
15402;SDS011;7799;53.478;10.170;2023-01-15T05:08:41;3.00;;;2.80;;
15402;SDS011;7799;53.478;10.170;2023-01-15T05:11:08;2.67;;;2.57;;
15402;SDS011;7799;53.478;10.170;2023-01-15T05:13:35;2.50;;;2.40;;
15402;SDS011;7799;53.478;10.170;2023-01-15T05:16:11;2.60;;;2.50;;
15402;SDS011;7799;53.478;10.170;2023-01-15T05:18:39;2.40;;;2.30;;
15402;SDS011;7799;53.478;10.170;2023-01-15T05:21:11;2.60;;;2.33;;
15402;SDS011;7799;53.478;10.170;2023-01-15T05:23:39;2.70;;;2.50;;
15402;SDS011;7799;53.478;10.170;2023-01-15T05:26:05;2.30;;;2.20;;
15402;SDS011;7799;53.478;10.170;2023-01-15T05:28:32;2.50;;;2.30;;
15402;SDS011;7799;53.478;10.170;2023-01-15T05:31:04;2.50;;;2.40;;
15402;SDS011;7799;53.478;10.170;2023-01-15T05:33:31;3.00;;;2.67;;
15402;SDS011;7799;53.478;10.170;2023-01-15T05:35:59;2.70;;;2.40;;
15402;SDS011;7799;53.478;10.170;2023-01-15T05:38:28;3.10;;;2.60;;
15402;SDS011;7799;53.478;10.170;2023-01-15T05:40:55;2.40;;;2.30;;
15402;SDS011;7799;53.478;10.170;2023-01-15T05:43:21;5.10;;;3.00;;
15402;SDS011;7799;53.478;10.170;2023-01-15T05:45:48;2.27;;;2.20;;
15402;SDS011;7799;53.478;10.170;2023-01-15T05:48:15;2.50;;;2.40;;
15402;SDS011;7799;53.478;10.170;2023-01-15T05:50:41;2.40;;;2.30;;
15402;SDS011;7799;53.478;10.170;2023-01-15T05:53:08;2.70;;;2.50;;
15402;SDS011;7799;53.478;10.170;2023-01-15T05:55:36;3.47;;;3.10;;
15402;SDS011;7799;53.478;10.170;2023-01-15T05:58:02;3.83;;;3.07;;
15402;SDS011;7799;53.478;10.170;2023-01-15T06:00:29;2.70;;;2.60;;
15402;SDS011;7799;53.478;10.170;2023-01-15T06:02:56;4.70;;;2.97;;
15402;SDS011;7799;53.478;10.170;2023-01-15T06:05:22;2.90;;;2.70;;
15402;SDS011;7799;53.478;10.170;2023-01-15T06:07:49;2.93;;;2.63;;
15402;SDS011;7799;53.478;10.170;2023-01-15T06:10:17;4.33;;;2.60;;
15402;SDS011;7799;53.478;10.170;2023-01-15T06:12:45;2.87;;;2.40;;
15402;SDS011;7799;53.478;10.170;2023-01-15T06:15:12;2.80;;;2.60;;
15402;SDS011;7799;53.478;10.170;2023-01-15T06:17:38;2.80;;;2.60;;
15402;SDS011;7799;53.478;10.170;2023-01-15T06:20:05;2.57;;;2.40;;
15402;SDS011;7799;53.478;10.170;2023-01-15T06:22:33;2.77;;;2.67;;
15402;SDS011;7799;53.478;10.170;2023-01-15T06:24:59;3.33;;;2.87;;
15402;SDS011;7799;53.478;10.170;2023-01-15T06:27:26;3.10;;;2.67;;
15402;SDS011;7799;53.478;10.170;2023-01-15T06:29:54;3.23;;;3.03;;
15402;SDS011;7799;53.478;10.170;2023-01-15T06:32:23;2.73;;;2.60;;
15402;SDS011;7799;53.478;10.170;2023-01-15T06:34:50;6.57;;;3.17;;
15402;SDS011;7799;53.478;10.170;2023-01-15T06:37:17;2.60;;;2.40;;
15402;SDS011;7799;53.478;10.170;2023-01-15T06:39:44;2.97;;;2.70;;
15402;SDS011;7799;53.478;10.170;2023-01-15T06:42:10;2.80;;;2.60;;
15402;SDS011;7799;53.478;10.170;2023-01-15T06:44:56;4.17;;;3.00;;
15402;SDS011;7799;53.478;10.170;2023-01-15T06:47:40;2.90;;;2.70;;
15402;SDS011;7799;53.478;10.170;2023-01-15T06:50:07;2.70;;;2.50;;
15402;SDS011;7799;53.478;10.170;2023-01-15T06:52:34;4.57;;;2.73;;
15402;SDS011;7799;53.478;10.170;2023-01-15T06:55:01;2.90;;;2.70;;
15402;SDS011;7799;53.478;10.170;2023-01-15T06:57:27;2.80;;;2.60;;
15402;SDS011;7799;53.478;10.170;2023-01-15T06:59:55;2.90;;;2.67;;
15402;SDS011;7799;53.478;10.170;2023-01-15T07:02:22;2.57;;;2.47;;
15402;SDS011;7799;53.478;10.170;2023-01-15T07:04:49;3.13;;;2.70;;
15402;SDS011;7799;53.478;10.170;2023-01-15T07:07:16;2.60;;;2.47;;
15402;SDS011;7799;53.478;10.170;2023-01-15T07:09:43;2.90;;;2.70;;
15402;SDS011;7799;53.478;10.170;2023-01-15T07:12:10;4.27;;;2.73;;
15402;SDS011;7799;53.478;10.170;2023-01-15T07:14:36;2.67;;;2.47;;
15402;SDS011;7799;53.478;10.170;2023-01-15T07:17:04;2.70;;;2.50;;
15402;SDS011;7799;53.478;10.170;2023-01-15T07:19:31;3.07;;;2.87;;
15402;SDS011;7799;53.478;10.170;2023-01-15T07:21:58;3.33;;;3.10;;
15402;SDS011;7799;53.478;10.170;2023-01-15T07:24:24;3.90;;;3.00;;
15402;SDS011;7799;53.478;10.170;2023-01-15T07:26:51;5.97;;;3.07;;
15402;SDS011;7799;53.478;10.170;2023-01-15T07:29:18;4.17;;;3.47;;
15402;SDS011;7799;53.478;10.170;2023-01-15T07:31:44;5.27;;;3.50;;
15402;SDS011;7799;53.478;10.170;2023-01-15T07:34:12;3.50;;;3.20;;
15402;SDS011;7799;53.478;10.170;2023-01-15T07:36:39;3.40;;;3.10;;
15402;SDS011;7799;53.478;10.170;2023-01-15T07:39:06;3.50;;;3.20;;
15402;SDS011;7799;53.478;10.170;2023-01-15T07:41:34;3.30;;;3.10;;
15402;SDS011;7799;53.478;10.170;2023-01-15T07:44:19;3.23;;;3.00;;
15402;SDS011;7799;53.478;10.170;2023-01-15T07:47:06;2.90;;;2.70;;
15402;SDS011;7799;53.478;10.170;2023-01-15T07:49:57;2.97;;;2.87;;
15402;SDS011;7799;53.478;10.170;2023-01-15T07:52:24;3.63;;;3.10;;
15402;SDS011;7799;53.478;10.170;2023-01-15T07:54:51;3.60;;;3.37;;
15402;SDS011;7799;53.478;10.170;2023-01-15T07:57:18;3.57;;;3.03;;
15402;SDS011;7799;53.478;10.170;2023-01-15T07:59:45;4.20;;;3.53;;
15402;SDS011;7799;53.478;10.170;2023-01-15T08:02:12;4.50;;;3.50;;
15402;SDS011;7799;53.478;10.170;2023-01-15T08:04:39;4.07;;;3.50;;
15402;SDS011;7799;53.478;10.170;2023-01-15T08:07:07;5.87;;;3.83;;
15402;SDS011;7799;53.478;10.170;2023-01-15T08:09:34;3.97;;;3.57;;
15402;SDS011;7799;53.478;10.170;2023-01-15T08:12:01;3.80;;;3.50;;
15402;SDS011;7799;53.478;10.170;2023-01-15T08:14:45;4.03;;;3.23;;
15402;SDS011;7799;53.478;10.170;2023-01-15T08:17:29;3.13;;;2.90;;
15402;SDS011;7799;53.478;10.170;2023-01-15T08:19:58;3.50;;;2.90;;
15402;SDS011;7799;53.478;10.170;2023-01-15T08:22:26;4.10;;;3.10;;
15402;SDS011;7799;53.478;10.170;2023-01-15T08:24:53;3.40;;;3.10;;
15402;SDS011;7799;53.478;10.170;2023-01-15T08:27:20;3.50;;;3.27;;
15402;SDS011;7799;53.478;10.170;2023-01-15T08:29:46;3.80;;;3.47;;
15402;SDS011;7799;53.478;10.170;2023-01-15T08:32:13;3.23;;;3.00;;
15402;SDS011;7799;53.478;10.170;2023-01-15T08:34:39;3.63;;;3.30;;
15402;SDS011;7799;53.478;10.170;2023-01-15T08:37:06;3.47;;;3.17;;
15402;SDS011;7799;53.478;10.170;2023-01-15T08:39:34;5.77;;;3.60;;
15402;SDS011;7799;53.478;10.170;2023-01-15T08:42:01;3.73;;;3.17;;
15402;SDS011;7799;53.478;10.170;2023-01-15T08:44:28;3.80;;;3.50;;
15402;SDS011;7799;53.478;10.170;2023-01-15T08:46:54;3.63;;;3.27;;
15402;SDS011;7799;53.478;10.170;2023-01-15T08:49:21;4.10;;;3.17;;
15402;SDS011;7799;53.478;10.170;2023-01-15T08:51:47;3.20;;;3.00;;
15402;SDS011;7799;53.478;10.170;2023-01-15T08:54:16;3.73;;;2.63;;
15402;SDS011;7799;53.478;10.170;2023-01-15T08:56:44;2.90;;;2.70;;
15402;SDS011;7799;53.478;10.170;2023-01-15T08:59:11;3.53;;;3.23;;
15402;SDS011;7799;53.478;10.170;2023-01-15T09:01:38;3.30;;;3.00;;
15402;SDS011;7799;53.478;10.170;2023-01-15T09:04:05;3.47;;;2.70;;
15402;SDS011;7799;53.478;10.170;2023-01-15T09:06:32;3.27;;;2.70;;
15402;SDS011;7799;53.478;10.170;2023-01-15T09:08:58;4.30;;;3.13;;
15402;SDS011;7799;53.478;10.170;2023-01-15T09:11:25;4.67;;;3.20;;
15402;SDS011;7799;53.478;10.170;2023-01-15T09:13:54;3.03;;;2.77;;
15402;SDS011;7799;53.478;10.170;2023-01-15T09:16:20;3.10;;;2.90;;
15402;SDS011;7799;53.478;10.170;2023-01-15T09:18:47;3.03;;;2.83;;
15402;SDS011;7799;53.478;10.170;2023-01-15T09:21:14;3.57;;;3.03;;
15402;SDS011;7799;53.478;10.170;2023-01-15T09:23:40;2.80;;;2.67;;
15402;SDS011;7799;53.478;10.170;2023-01-15T09:26:19;3.00;;;2.80;;
15402;SDS011;7799;53.478;10.170;2023-01-15T09:28:51;3.30;;;3.00;;
15402;SDS011;7799;53.478;10.170;2023-01-15T09:31:20;4.40;;;2.73;;
15402;SDS011;7799;53.478;10.170;2023-01-15T09:33:46;2.80;;;2.60;;
15402;SDS011;7799;53.478;10.170;2023-01-15T09:36:13;3.63;;;2.77;;
15402;SDS011;7799;53.478;10.170;2023-01-15T09:38:41;2.90;;;2.70;;
15402;SDS011;7799;53.478;10.170;2023-01-15T09:41:09;3.33;;;2.50;;
15402;SDS011;7799;53.478;10.170;2023-01-15T09:44:02;3.00;;;2.50;;
15402;SDS011;7799;53.478;10.170;2023-01-15T09:46:38;3.23;;;2.47;;
15402;SDS011;7799;53.478;10.170;2023-01-15T09:49:09;3.93;;;3.00;;
15402;SDS011;7799;53.478;10.170;2023-01-15T09:51:45;4.63;;;3.20;;
15402;SDS011;7799;53.478;10.170;2023-01-15T09:54:19;3.83;;;3.10;;
15402;SDS011;7799;53.478;10.170;2023-01-15T09:56:53;3.97;;;3.70;;
15402;SDS011;7799;53.478;10.170;2023-01-15T09:59:21;4.87;;;4.43;;
15402;SDS011;7799;53.478;10.170;2023-01-15T10:01:53;4.37;;;4.07;;
15402;SDS011;7799;53.478;10.170;2023-01-15T10:04:26;5.10;;;4.70;;
15402;SDS011;7799;53.478;10.170;2023-01-15T10:06:59;4.30;;;4.00;;
15402;SDS011;7799;53.478;10.170;2023-01-15T10:09:30;5.03;;;4.63;;
15402;SDS011;7799;53.478;10.170;2023-01-15T10:12:03;7.83;;;4.67;;
15402;SDS011;7799;53.478;10.170;2023-01-15T10:14:53;4.90;;;4.50;;
15402;SDS011;7799;53.478;10.170;2023-01-15T10:17:27;4.80;;;4.40;;
15402;SDS011;7799;53.478;10.170;2023-01-15T10:19:59;5.33;;;4.80;;
15402;SDS011;7799;53.478;10.170;2023-01-15T10:25:15;5.00;;;4.47;;
15402;SDS011;7799;53.478;10.170;2023-01-15T10:27:45;4.30;;;3.90;;
15402;SDS011;7799;53.478;10.170;2023-01-15T10:30:15;5.67;;;4.47;;
15402;SDS011;7799;53.478;10.170;2023-01-15T10:32:44;4.47;;;3.70;;
15402;SDS011;7799;53.478;10.170;2023-01-15T10:35:20;3.90;;;3.50;;
15402;SDS011;7799;53.478;10.170;2023-01-15T10:37:53;3.50;;;3.20;;
15402;SDS011;7799;53.478;10.170;2023-01-15T10:40:31;3.87;;;2.93;;
15402;SDS011;7799;53.478;10.170;2023-01-15T10:43:04;4.37;;;2.80;;
15402;SDS011;7799;53.478;10.170;2023-01-15T10:45:38;3.10;;;2.50;;
15402;SDS011;7799;53.478;10.170;2023-01-15T10:48:10;2.70;;;2.50;;
15402;SDS011;7799;53.478;10.170;2023-01-15T10:50:39;3.73;;;2.90;;
15402;SDS011;7799;53.478;10.170;2023-01-15T10:53:08;2.83;;;2.50;;
15402;SDS011;7799;53.478;10.170;2023-01-15T10:55:39;3.20;;;2.67;;
15402;SDS011;7799;53.478;10.170;2023-01-15T10:58:10;4.47;;;2.90;;
15402;SDS011;7799;53.478;10.170;2023-01-15T11:00:40;4.53;;;3.43;;
15402;SDS011;7799;53.478;10.170;2023-01-15T11:03:11;2.70;;;2.50;;
15402;SDS011;7799;53.478;10.170;2023-01-15T11:05:40;6.27;;;2.77;;
15402;SDS011;7799;53.478;10.170;2023-01-15T11:08:12;3.20;;;2.90;;
15402;SDS011;7799;53.478;10.170;2023-01-15T11:10:44;4.00;;;2.60;;
15402;SDS011;7799;53.478;10.170;2023-01-15T11:13:15;2.87;;;2.50;;
15402;SDS011;7799;53.478;10.170;2023-01-15T11:16:03;3.93;;;2.47;;
15402;SDS011;7799;53.478;10.170;2023-01-15T11:18:48;6.60;;;2.57;;
15402;SDS011;7799;53.478;10.170;2023-01-15T11:21:32;3.73;;;2.37;;
15402;SDS011;7799;53.478;10.170;2023-01-15T11:24:11;3.37;;;2.33;;
15402;SDS011;7799;53.478;10.170;2023-01-15T11:26:39;3.83;;;2.20;;
15402;SDS011;7799;53.478;10.170;2023-01-15T11:29:11;3.37;;;2.20;;
15402;SDS011;7799;53.478;10.170;2023-01-15T11:31:39;3.77;;;2.20;;
15402;SDS011;7799;53.478;10.170;2023-01-15T11:34:17;3.30;;;2.10;;
15402;SDS011;7799;53.478;10.170;2023-01-15T11:36:45;2.47;;;2.17;;
15402;SDS011;7799;53.478;10.170;2023-01-15T11:39:21;3.63;;;2.20;;
15402;SDS011;7799;53.478;10.170;2023-01-15T11:41:56;2.60;;;2.10;;
15402;SDS011;7799;53.478;10.170;2023-01-15T11:44:48;2.17;;;2.00;;
15402;SDS011;7799;53.478;10.170;2023-01-15T11:47:34;6.27;;;3.10;;
15402;SDS011;7799;53.478;10.170;2023-01-15T11:50:19;3.23;;;2.43;;
15402;SDS011;7799;53.478;10.170;2023-01-15T11:53:03;4.20;;;3.07;;
15402;SDS011;7799;53.478;10.170;2023-01-15T11:55:32;5.10;;;2.50;;
15402;SDS011;7799;53.478;10.170;2023-01-15T11:57:59;2.73;;;2.47;;
15402;SDS011;7799;53.478;10.170;2023-01-15T12:00:27;3.97;;;3.67;;
15402;SDS011;7799;53.478;10.170;2023-01-15T12:02:56;2.80;;;2.60;;
15402;SDS011;7799;53.478;10.170;2023-01-15T12:05:27;3.93;;;2.50;;
15402;SDS011;7799;53.478;10.170;2023-01-15T12:07:57;3.07;;;1.80;;
15402;SDS011;7799;53.478;10.170;2023-01-15T12:10:27;1.30;;;1.30;;
15402;SDS011;7799;53.478;10.170;2023-01-15T12:13:14;1.90;;;1.80;;
15402;SDS011;7799;53.478;10.170;2023-01-15T12:15:48;1.80;;;1.73;;
15402;SDS011;7799;53.478;10.170;2023-01-15T12:18:32;1.80;;;1.70;;
15402;SDS011;7799;53.478;10.170;2023-01-15T12:21:15;1.90;;;1.80;;
15402;SDS011;7799;53.478;10.170;2023-01-15T12:24:09;1.90;;;1.80;;
15402;SDS011;7799;53.478;10.170;2023-01-15T12:26:48;1.97;;;1.87;;
15402;SDS011;7799;53.478;10.170;2023-01-15T12:29:25;1.73;;;1.73;;
15402;SDS011;7799;53.478;10.170;2023-01-15T12:31:54;1.50;;;1.50;;
15402;SDS011;7799;53.478;10.170;2023-01-15T12:34:24;2.17;;;1.97;;
15402;SDS011;7799;53.478;10.170;2023-01-15T12:36:57;2.30;;;2.20;;
15402;SDS011;7799;53.478;10.170;2023-01-15T12:39:28;2.23;;;2.13;;
15402;SDS011;7799;53.478;10.170;2023-01-15T12:41:57;2.20;;;2.10;;
15402;SDS011;7799;53.478;10.170;2023-01-15T12:44:45;2.10;;;2.00;;
15402;SDS011;7799;53.478;10.170;2023-01-15T12:47:30;2.53;;;2.33;;
15402;SDS011;7799;53.478;10.170;2023-01-15T12:50:02;2.50;;;2.30;;
15402;SDS011;7799;53.478;10.170;2023-01-15T12:52:34;3.17;;;2.63;;
15402;SDS011;7799;53.478;10.170;2023-01-15T12:55:05;3.63;;;2.47;;
15402;SDS011;7799;53.478;10.170;2023-01-15T12:57:39;4.70;;;2.47;;
15402;SDS011;7799;53.478;10.170;2023-01-15T13:00:10;2.97;;;2.63;;
15402;SDS011;7799;53.478;10.170;2023-01-15T13:02:42;4.30;;;2.70;;
15402;SDS011;7799;53.478;10.170;2023-01-15T13:05:20;2.70;;;2.60;;
15402;SDS011;7799;53.478;10.170;2023-01-15T13:07:50;3.10;;;2.50;;
15402;SDS011;7799;53.478;10.170;2023-01-15T13:10:21;2.60;;;2.40;;
15402;SDS011;7799;53.478;10.170;2023-01-15T13:12:50;2.60;;;2.40;;
15402;SDS011;7799;53.478;10.170;2023-01-15T13:15:17;4.07;;;2.70;;
15402;SDS011;7799;53.478;10.170;2023-01-15T13:17:50;3.20;;;2.50;;
15402;SDS011;7799;53.478;10.170;2023-01-15T13:20:26;4.50;;;2.77;;
15402;SDS011;7799;53.478;10.170;2023-01-15T13:23:03;3.17;;;2.70;;
15402;SDS011;7799;53.478;10.170;2023-01-15T13:25:39;3.57;;;2.77;;
15402;SDS011;7799;53.478;10.170;2023-01-15T13:28:32;3.53;;;2.73;;
15402;SDS011;7799;53.478;10.170;2023-01-15T13:31:10;2.73;;;2.53;;
15402;SDS011;7799;53.478;10.170;2023-01-15T13:33:44;2.97;;;2.37;;
15402;SDS011;7799;53.478;10.170;2023-01-15T13:36:13;2.80;;;2.57;;
15402;SDS011;7799;53.478;10.170;2023-01-15T13:38:43;3.00;;;2.80;;
15402;SDS011;7799;53.478;10.170;2023-01-15T13:41:13;3.60;;;3.00;;
15402;SDS011;7799;53.478;10.170;2023-01-15T13:44:04;3.00;;;2.70;;
15402;SDS011;7799;53.478;10.170;2023-01-15T13:46:31;3.40;;;2.60;;
15402;SDS011;7799;53.478;10.170;2023-01-15T13:48:58;4.13;;;2.60;;
15402;SDS011;7799;53.478;10.170;2023-01-15T13:51:26;3.37;;;2.90;;
15402;SDS011;7799;53.478;10.170;2023-01-15T13:53:55;3.17;;;2.50;;
15402;SDS011;7799;53.478;10.170;2023-01-15T13:56:27;2.80;;;2.50;;
15402;SDS011;7799;53.478;10.170;2023-01-15T13:58:55;3.57;;;2.63;;
15402;SDS011;7799;53.478;10.170;2023-01-15T14:01:24;3.57;;;2.50;;
15402;SDS011;7799;53.478;10.170;2023-01-15T14:03:53;2.60;;;2.40;;
15402;SDS011;7799;53.478;10.170;2023-01-15T14:06:34;2.40;;;2.20;;
15402;SDS011;7799;53.478;10.170;2023-01-15T14:09:03;2.53;;;2.33;;
15402;SDS011;7799;53.478;10.170;2023-01-15T14:11:33;3.03;;;2.63;;
15402;SDS011;7799;53.478;10.170;2023-01-15T14:17:26;6.50;;;3.27;;
15402;SDS011;7799;53.478;10.170;2023-01-15T14:20:12;3.87;;;2.90;;
15402;SDS011;7799;53.478;10.170;2023-01-15T14:23:08;3.53;;;2.70;;
15402;SDS011;7799;53.478;10.170;2023-01-15T14:25:45;2.80;;;2.50;;
15402;SDS011;7799;53.478;10.170;2023-01-15T14:28:22;2.53;;;2.30;;
15402;SDS011;7799;53.478;10.170;2023-01-15T14:31:03;4.13;;;2.70;;
15402;SDS011;7799;53.478;10.170;2023-01-15T14:33:37;3.93;;;2.40;;
15402;SDS011;7799;53.478;10.170;2023-01-15T14:36:15;5.17;;;2.70;;
15402;SDS011;7799;53.478;10.170;2023-01-15T14:38:45;3.27;;;2.13;;
15402;SDS011;7799;53.478;10.170;2023-01-15T14:41:14;2.70;;;2.00;;
15402;SDS011;7799;53.478;10.170;2023-01-15T14:43:46;2.37;;;2.00;;
15402;SDS011;7799;53.478;10.170;2023-01-15T14:46:14;3.97;;;2.27;;
15402;SDS011;7799;53.478;10.170;2023-01-15T14:48:49;3.50;;;2.10;;
15402;SDS011;7799;53.478;10.170;2023-01-15T14:51:22;5.53;;;2.37;;
15402;SDS011;7799;53.478;10.170;2023-01-15T14:53:51;4.13;;;2.50;;
15402;SDS011;7799;53.478;10.170;2023-01-15T14:56:22;2.90;;;2.20;;
15402;SDS011;7799;53.478;10.170;2023-01-15T14:58:57;2.40;;;2.13;;
15402;SDS011;7799;53.478;10.170;2023-01-15T15:01:28;4.57;;;2.40;;
15402;SDS011;7799;53.478;10.170;2023-01-15T15:04:11;2.77;;;2.07;;
15402;SDS011;7799;53.478;10.170;2023-01-15T15:06:43;4.60;;;2.00;;
15402;SDS011;7799;53.478;10.170;2023-01-15T15:09:12;4.87;;;2.30;;
15402;SDS011;7799;53.478;10.170;2023-01-15T15:11:42;2.30;;;1.90;;
15402;SDS011;7799;53.478;10.170;2023-01-15T15:14:29;3.37;;;2.00;;
15402;SDS011;7799;53.478;10.170;2023-01-15T15:16:59;5.57;;;2.30;;